sensor_id;sensor_type;location;lat;lon;timestamp;P1;durP1;ratioP1;P2;durP2;ratioP2
31660;SDS011;18267;52.234;7.444;2022-11-20T00:01:39;19.85;;;9.88;;
31660;SDS011;18267;52.234;7.444;2022-11-20T00:04:05;23.95;;;11.18;;
31660;SDS011;18267;52.234;7.444;2022-11-20T00:06:31;43.30;;;16.08;;
31660;SDS011;18267;52.234;7.444;2022-11-20T00:08:57;42.63;;;16.35;;
31660;SDS011;18267;52.234;7.444;2022-11-20T00:11:25;39.88;;;15.18;;
31660;SDS011;18267;52.234;7.444;2022-11-20T00:13:52;32.60;;;14.00;;
31660;SDS011;18267;52.234;7.444;2022-11-20T00:16:21;37.95;;;14.70;;
31660;SDS011;18267;52.234;7.444;2022-11-20T00:18:49;31.13;;;14.02;;
31660;SDS011;18267;52.234;7.444;2022-11-20T00:21:18;32.72;;;14.40;;
31660;SDS011;18267;52.234;7.444;2022-11-20T00:23:46;41.80;;;13.93;;
31660;SDS011;18267;52.234;7.444;2022-11-20T00:26:12;35.58;;;13.55;;
31660;SDS011;18267;52.234;7.444;2022-11-20T00:28:40;40.00;;;16.90;;
31660;SDS011;18267;52.234;7.444;2022-11-20T00:31:10;35.72;;;15.82;;
31660;SDS011;18267;52.234;7.444;2022-11-20T00:33:37;35.42;;;16.73;;
31660;SDS011;18267;52.234;7.444;2022-11-20T00:36:04;40.90;;;14.82;;
31660;SDS011;18267;52.234;7.444;2022-11-20T00:38:32;31.90;;;13.18;;
31660;SDS011;18267;52.234;7.444;2022-11-20T00:40:58;27.13;;;12.25;;
31660;SDS011;18267;52.234;7.444;2022-11-20T00:43:25;24.50;;;10.80;;
31660;SDS011;18267;52.234;7.444;2022-11-20T00:45:55;20.30;;;10.05;;
31660;SDS011;18267;52.234;7.444;2022-11-20T00:48:24;22.40;;;9.77;;
31660;SDS011;18267;52.234;7.444;2022-11-20T00:50:50;19.17;;;9.13;;
31660;SDS011;18267;52.234;7.444;2022-11-20T00:53:16;18.73;;;8.65;;
31660;SDS011;18267;52.234;7.444;2022-11-20T00:55:42;20.98;;;9.93;;
31660;SDS011;18267;52.234;7.444;2022-11-20T00:58:07;25.88;;;10.07;;
31660;SDS011;18267;52.234;7.444;2022-11-20T01:00:33;18.48;;;9.63;;
31660;SDS011;18267;52.234;7.444;2022-11-20T01:02:59;16.42;;;8.63;;
31660;SDS011;18267;52.234;7.444;2022-11-20T01:05:24;22.83;;;8.65;;
31660;SDS011;18267;52.234;7.444;2022-11-20T01:07:50;18.40;;;8.80;;
31660;SDS011;18267;52.234;7.444;2022-11-20T01:10:16;23.25;;;9.27;;
31660;SDS011;18267;52.234;7.444;2022-11-20T01:12:42;16.60;;;8.68;;
31660;SDS011;18267;52.234;7.444;2022-11-20T01:15:08;22.33;;;10.30;;
31660;SDS011;18267;52.234;7.444;2022-11-20T01:17:34;18.23;;;9.45;;
31660;SDS011;18267;52.234;7.444;2022-11-20T01:19:59;17.75;;;8.68;;
31660;SDS011;18267;52.234;7.444;2022-11-20T01:22:25;21.80;;;8.82;;
31660;SDS011;18267;52.234;7.444;2022-11-20T01:24:50;22.20;;;9.65;;
31660;SDS011;18267;52.234;7.444;2022-11-20T01:27:16;19.60;;;8.18;;
31660;SDS011;18267;52.234;7.444;2022-11-20T01:29:41;17.17;;;9.40;;
31660;SDS011;18267;52.234;7.444;2022-11-20T01:32:07;19.85;;;9.65;;
31660;SDS011;18267;52.234;7.444;2022-11-20T01:34:32;13.63;;;7.70;;
31660;SDS011;18267;52.234;7.444;2022-11-20T01:36:58;18.40;;;9.55;;
31660;SDS011;18267;52.234;7.444;2022-11-20T01:39:24;15.60;;;6.95;;
31660;SDS011;18267;52.234;7.444;2022-11-20T01:41:51;19.23;;;8.70;;
31660;SDS011;18267;52.234;7.444;2022-11-20T01:44:53;17.58;;;8.60;;
31660;SDS011;18267;52.234;7.444;2022-11-20T01:49:56;18.27;;;8.35;;
31660;SDS011;18267;52.234;7.444;2022-11-20T01:52:40;19.88;;;8.52;;
31660;SDS011;18267;52.234;7.444;2022-11-20T01:55:12;15.57;;;8.25;;
31660;SDS011;18267;52.234;7.444;2022-11-20T01:57:42;15.93;;;7.68;;
31660;SDS011;18267;52.234;7.444;2022-11-20T02:00:11;18.13;;;8.18;;
31660;SDS011;18267;52.234;7.444;2022-11-20T02:02:42;18.65;;;7.72;;
31660;SDS011;18267;52.234;7.444;2022-11-20T02:07:49;15.02;;;7.22;;
31660;SDS011;18267;52.234;7.444;2022-11-20T02:10:15;15.18;;;7.07;;
31660;SDS011;18267;52.234;7.444;2022-11-20T02:12:41;12.35;;;6.40;;
31660;SDS011;18267;52.234;7.444;2022-11-20T02:15:25;15.45;;;7.97;;
31660;SDS011;18267;52.234;7.444;2022-11-20T02:17:50;19.27;;;7.05;;
31660;SDS011;18267;52.234;7.444;2022-11-20T02:20:16;20.98;;;7.68;;
31660;SDS011;18267;52.234;7.444;2022-11-20T02:22:47;21.17;;;8.18;;
31660;SDS011;18267;52.234;7.444;2022-11-20T02:25:17;19.83;;;8.10;;
31660;SDS011;18267;52.234;7.444;2022-11-20T02:27:44;15.68;;;7.38;;
31660;SDS011;18267;52.234;7.444;2022-11-20T02:30:09;14.10;;;6.93;;
31660;SDS011;18267;52.234;7.444;2022-11-20T02:32:36;12.50;;;6.72;;
31660;SDS011;18267;52.234;7.444;2022-11-20T02:35:38;14.52;;;6.78;;
31660;SDS011;18267;52.234;7.444;2022-11-20T02:37:54;19.92;;;6.55;;
31660;SDS011;18267;52.234;7.444;2022-11-20T02:40:22;15.38;;;7.47;;
31660;SDS011;18267;52.234;7.444;2022-11-20T02:42:51;15.75;;;6.60;;
31660;SDS011;18267;52.234;7.444;2022-11-20T02:45:18;12.10;;;6.57;;
31660;SDS011;18267;52.234;7.444;2022-11-20T02:47:44;14.13;;;6.40;;
31660;SDS011;18267;52.234;7.444;2022-11-20T02:50:09;12.63;;;6.47;;
31660;SDS011;18267;52.234;7.444;2022-11-20T02:52:35;13.15;;;7.10;;
31660;SDS011;18267;52.234;7.444;2022-11-20T02:55:01;17.00;;;7.75;;
31660;SDS011;18267;52.234;7.444;2022-11-20T02:57:27;17.48;;;6.88;;
31660;SDS011;18267;52.234;7.444;2022-11-20T02:59:53;14.55;;;7.65;;
31660;SDS011;18267;52.234;7.444;2022-11-20T03:02:18;16.63;;;8.00;;
31660;SDS011;18267;52.234;7.444;2022-11-20T03:04:44;17.85;;;7.80;;
31660;SDS011;18267;52.234;7.444;2022-11-20T03:07:09;16.58;;;7.55;;
31660;SDS011;18267;52.234;7.444;2022-11-20T03:09:35;16.95;;;8.23;;
31660;SDS011;18267;52.234;7.444;2022-11-20T03:12:01;17.10;;;7.53;;
31660;SDS011;18267;52.234;7.444;2022-11-20T03:14:26;11.40;;;7.00;;
31660;SDS011;18267;52.234;7.444;2022-11-20T03:16:52;14.43;;;8.05;;
31660;SDS011;18267;52.234;7.444;2022-11-20T03:19:17;14.80;;;7.82;;
31660;SDS011;18267;52.234;7.444;2022-11-20T03:21:43;22.70;;;8.20;;
31660;SDS011;18267;52.234;7.444;2022-11-20T03:24:08;16.05;;;7.68;;
31660;SDS011;18267;52.234;7.444;2022-11-20T03:26:34;17.98;;;7.95;;
31660;SDS011;18267;52.234;7.444;2022-11-20T03:29:01;17.70;;;8.10;;
31660;SDS011;18267;52.234;7.444;2022-11-20T03:31:33;15.00;;;8.48;;
31660;SDS011;18267;52.234;7.444;2022-11-20T03:34:00;19.52;;;8.75;;
31660;SDS011;18267;52.234;7.444;2022-11-20T03:36:27;16.45;;;8.57;;
31660;SDS011;18267;52.234;7.444;2022-11-20T03:38:53;20.75;;;9.23;;
31660;SDS011;18267;52.234;7.444;2022-11-20T03:41:24;18.15;;;8.57;;
31660;SDS011;18267;52.234;7.444;2022-11-20T03:43:53;21.25;;;9.27;;
31660;SDS011;18267;52.234;7.444;2022-11-20T03:46:20;18.15;;;9.18;;
31660;SDS011;18267;52.234;7.444;2022-11-20T03:48:46;21.90;;;9.27;;
31660;SDS011;18267;52.234;7.444;2022-11-20T03:51:17;27.02;;;10.00;;
31660;SDS011;18267;52.234;7.444;2022-11-20T03:53:44;21.88;;;9.52;;
31660;SDS011;18267;52.234;7.444;2022-11-20T03:56:11;20.92;;;10.10;;
31660;SDS011;18267;52.234;7.444;2022-11-20T03:58:38;21.83;;;10.50;;
31660;SDS011;18267;52.234;7.444;2022-11-20T04:01:09;29.70;;;11.48;;
31660;SDS011;18267;52.234;7.444;2022-11-20T04:03:35;25.45;;;10.15;;
31660;SDS011;18267;52.234;7.444;2022-11-20T04:06:05;21.75;;;10.07;;
31660;SDS011;18267;52.234;7.444;2022-11-20T04:08:35;27.52;;;10.07;;
31660;SDS011;18267;52.234;7.444;2022-11-20T04:11:35;21.52;;;10.38;;
31660;SDS011;18267;52.234;7.444;2022-11-20T04:13:55;28.65;;;11.68;;
31660;SDS011;18267;52.234;7.444;2022-11-20T04:16:23;21.67;;;9.65;;
31660;SDS011;18267;52.234;7.444;2022-11-20T04:18:53;23.27;;;9.88;;
31660;SDS011;18267;52.234;7.444;2022-11-20T04:21:20;21.73;;;9.43;;
31660;SDS011;18267;52.234;7.444;2022-11-20T04:23:46;18.67;;;8.23;;
31660;SDS011;18267;52.234;7.444;2022-11-20T04:26:11;22.65;;;9.60;;
31660;SDS011;18267;52.234;7.444;2022-11-20T04:28:37;17.00;;;8.73;;
31660;SDS011;18267;52.234;7.444;2022-11-20T04:31:11;17.55;;;9.07;;
31660;SDS011;18267;52.234;7.444;2022-11-20T04:33:38;27.45;;;9.52;;
31660;SDS011;18267;52.234;7.444;2022-11-20T04:36:05;26.15;;;9.88;;
31660;SDS011;18267;52.234;7.444;2022-11-20T04:38:32;23.08;;;8.43;;
31660;SDS011;18267;52.234;7.444;2022-11-20T04:41:02;19.08;;;9.20;;
31660;SDS011;18267;52.234;7.444;2022-11-20T04:43:30;21.17;;;8.80;;
31660;SDS011;18267;52.234;7.444;2022-11-20T04:45:56;16.85;;;8.48;;
31660;SDS011;18267;52.234;7.444;2022-11-20T04:48:23;16.50;;;8.57;;
31660;SDS011;18267;52.234;7.444;2022-11-20T04:50:49;27.75;;;11.88;;
31660;SDS011;18267;52.234;7.444;2022-11-20T04:53:15;22.25;;;8.93;;
31660;SDS011;18267;52.234;7.444;2022-11-20T04:55:41;34.22;;;10.65;;
31660;SDS011;18267;52.234;7.444;2022-11-20T04:58:07;29.48;;;12.40;;
31660;SDS011;18267;52.234;7.444;2022-11-20T05:00:33;22.70;;;10.45;;
31660;SDS011;18267;52.234;7.444;2022-11-20T05:02:59;23.33;;;11.60;;
31660;SDS011;18267;52.234;7.444;2022-11-20T05:05:24;31.42;;;12.02;;
31660;SDS011;18267;52.234;7.444;2022-11-20T05:07:50;26.20;;;11.48;;
31660;SDS011;18267;52.234;7.444;2022-11-20T05:10:16;25.52;;;9.65;;
31660;SDS011;18267;52.234;7.444;2022-11-20T05:12:41;24.48;;;9.18;;
31660;SDS011;18267;52.234;7.444;2022-11-20T05:15:07;32.25;;;8.65;;
31660;SDS011;18267;52.234;7.444;2022-11-20T05:17:33;17.92;;;9.05;;
31660;SDS011;18267;52.234;7.444;2022-11-20T05:19:58;17.38;;;8.70;;
31660;SDS011;18267;52.234;7.444;2022-11-20T05:22:24;24.20;;;10.07;;
31660;SDS011;18267;52.234;7.444;2022-11-20T05:24:49;23.02;;;10.32;;
31660;SDS011;18267;52.234;7.444;2022-11-20T05:27:15;17.48;;;9.30;;
31660;SDS011;18267;52.234;7.444;2022-11-20T05:29:41;22.20;;;9.43;;
31660;SDS011;18267;52.234;7.444;2022-11-20T05:32:06;24.08;;;9.88;;
31660;SDS011;18267;52.234;7.444;2022-11-20T05:34:34;16.75;;;8.48;;
31660;SDS011;18267;52.234;7.444;2022-11-20T05:37:00;17.67;;;8.23;;
31660;SDS011;18267;52.234;7.444;2022-11-20T05:39:26;18.42;;;7.90;;
31660;SDS011;18267;52.234;7.444;2022-11-20T05:41:52;17.35;;;7.75;;
31660;SDS011;18267;52.234;7.444;2022-11-20T05:44:37;17.65;;;8.05;;
31660;SDS011;18267;52.234;7.444;2022-11-20T05:47:03;15.63;;;8.82;;
31660;SDS011;18267;52.234;7.444;2022-11-20T05:49:29;16.50;;;8.18;;
31660;SDS011;18267;52.234;7.444;2022-11-20T05:51:55;14.52;;;8.43;;
31660;SDS011;18267;52.234;7.444;2022-11-20T05:54:20;15.48;;;9.40;;
31660;SDS011;18267;52.234;7.444;2022-11-20T05:56:46;17.10;;;7.30;;
31660;SDS011;18267;52.234;7.444;2022-11-20T05:59:11;20.52;;;9.38;;
31660;SDS011;18267;52.234;7.444;2022-11-20T06:01:37;20.58;;;8.45;;
31660;SDS011;18267;52.234;7.444;2022-11-20T06:04:02;18.70;;;7.95;;
31660;SDS011;18267;52.234;7.444;2022-11-20T06:06:28;16.20;;;7.97;;
31660;SDS011;18267;52.234;7.444;2022-11-20T06:08:54;19.45;;;7.90;;
31660;SDS011;18267;52.234;7.444;2022-11-20T06:11:20;14.25;;;7.95;;
31660;SDS011;18267;52.234;7.444;2022-11-20T06:13:46;15.30;;;8.57;;
31660;SDS011;18267;52.234;7.444;2022-11-20T06:16:13;18.10;;;7.78;;
31660;SDS011;18267;52.234;7.444;2022-11-20T06:18:41;16.73;;;7.18;;
31660;SDS011;18267;52.234;7.444;2022-11-20T06:21:07;25.98;;;8.23;;
31660;SDS011;18267;52.234;7.444;2022-11-20T06:23:35;16.20;;;8.48;;
31660;SDS011;18267;52.234;7.444;2022-11-20T06:26:05;12.75;;;7.07;;
31660;SDS011;18267;52.234;7.444;2022-11-20T06:28:35;16.27;;;7.32;;
31660;SDS011;18267;52.234;7.444;2022-11-20T06:31:01;17.60;;;7.18;;
31660;SDS011;18267;52.234;7.444;2022-11-20T06:33:27;15.77;;;6.95;;
31660;SDS011;18267;52.234;7.444;2022-11-20T06:35:55;20.83;;;7.60;;
31660;SDS011;18267;52.234;7.444;2022-11-20T06:38:22;15.00;;;6.93;;
31660;SDS011;18267;52.234;7.444;2022-11-20T06:40:47;14.07;;;6.75;;
31660;SDS011;18267;52.234;7.444;2022-11-20T06:43:13;16.23;;;7.28;;
31660;SDS011;18267;52.234;7.444;2022-11-20T06:45:38;17.70;;;7.13;;
31660;SDS011;18267;52.234;7.444;2022-11-20T06:48:04;21.02;;;7.32;;
31660;SDS011;18267;52.234;7.444;2022-11-20T06:50:30;21.20;;;8.70;;
31660;SDS011;18267;52.234;7.444;2022-11-20T06:52:55;20.70;;;9.15;;
31660;SDS011;18267;52.234;7.444;2022-11-20T06:55:21;22.60;;;9.48;;
31660;SDS011;18267;52.234;7.444;2022-11-20T06:57:46;19.55;;;8.25;;
31660;SDS011;18267;52.234;7.444;2022-11-20T07:00:12;17.00;;;8.20;;
31660;SDS011;18267;52.234;7.444;2022-11-20T07:02:38;15.65;;;7.88;;
31660;SDS011;18267;52.234;7.444;2022-11-20T07:05:04;17.33;;;8.55;;
31660;SDS011;18267;52.234;7.444;2022-11-20T07:07:29;17.50;;;8.38;;
31660;SDS011;18267;52.234;7.444;2022-11-20T07:09:55;14.73;;;6.63;;
31660;SDS011;18267;52.234;7.444;2022-11-20T07:12:20;20.05;;;8.13;;
31660;SDS011;18267;52.234;7.444;2022-11-20T07:14:46;15.27;;;7.07;;
31660;SDS011;18267;52.234;7.444;2022-11-20T07:17:12;17.92;;;7.72;;
31660;SDS011;18267;52.234;7.444;2022-11-20T07:19:37;10.98;;;6.03;;
31660;SDS011;18267;52.234;7.444;2022-11-20T07:22:04;13.48;;;6.57;;
31660;SDS011;18267;52.234;7.444;2022-11-20T07:24:29;20.63;;;7.30;;
31660;SDS011;18267;52.234;7.444;2022-11-20T07:26:55;16.42;;;6.75;;
31660;SDS011;18267;52.234;7.444;2022-11-20T07:29:21;16.52;;;7.53;;
31660;SDS011;18267;52.234;7.444;2022-11-20T07:31:46;23.55;;;8.82;;
31660;SDS011;18267;52.234;7.444;2022-11-20T07:34:12;17.40;;;7.72;;
31660;SDS011;18267;52.234;7.444;2022-11-20T07:36:37;17.80;;;8.57;;
31660;SDS011;18267;52.234;7.444;2022-11-20T07:39:04;15.32;;;7.70;;
31660;SDS011;18267;52.234;7.444;2022-11-20T07:41:29;15.57;;;6.82;;
31660;SDS011;18267;52.234;7.444;2022-11-20T07:43:56;22.83;;;7.38;;
31660;SDS011;18267;52.234;7.444;2022-11-20T07:46:21;17.48;;;6.82;;
31660;SDS011;18267;52.234;7.444;2022-11-20T07:48:47;15.18;;;6.25;;
31660;SDS011;18267;52.234;7.444;2022-11-20T07:51:13;16.98;;;7.53;;
31660;SDS011;18267;52.234;7.444;2022-11-20T07:53:39;9.98;;;5.70;;
31660;SDS011;18267;52.234;7.444;2022-11-20T07:56:05;13.73;;;6.75;;
31660;SDS011;18267;52.234;7.444;2022-11-20T07:58:31;12.43;;;5.82;;
31660;SDS011;18267;52.234;7.444;2022-11-20T08:00:58;14.57;;;7.55;;
31660;SDS011;18267;52.234;7.444;2022-11-20T08:03:28;14.48;;;6.68;;
31660;SDS011;18267;52.234;7.444;2022-11-20T08:05:53;10.90;;;6.20;;
31660;SDS011;18267;52.234;7.444;2022-11-20T08:08:19;14.43;;;7.43;;
31660;SDS011;18267;52.234;7.444;2022-11-20T08:10:46;16.88;;;7.28;;
31660;SDS011;18267;52.234;7.444;2022-11-20T08:13:12;19.05;;;7.63;;
31660;SDS011;18267;52.234;7.444;2022-11-20T08:15:56;13.43;;;6.53;;
31660;SDS011;18267;52.234;7.444;2022-11-20T08:18:22;14.32;;;7.20;;
31660;SDS011;18267;52.234;7.444;2022-11-20T08:20:47;14.07;;;8.00;;
31660;SDS011;18267;52.234;7.444;2022-11-20T08:23:13;14.23;;;8.07;;
31660;SDS011;18267;52.234;7.444;2022-11-20T08:25:39;15.38;;;7.38;;
31660;SDS011;18267;52.234;7.444;2022-11-20T08:28:05;17.88;;;7.40;;
31660;SDS011;18267;52.234;7.444;2022-11-20T08:30:33;18.90;;;7.18;;
31660;SDS011;18267;52.234;7.444;2022-11-20T08:33:06;19.77;;;8.73;;
31660;SDS011;18267;52.234;7.444;2022-11-20T08:35:34;20.13;;;7.75;;
31660;SDS011;18267;52.234;7.444;2022-11-20T08:38:01;13.15;;;7.57;;
31660;SDS011;18267;52.234;7.444;2022-11-20T08:40:27;17.88;;;7.32;;
31660;SDS011;18267;52.234;7.444;2022-11-20T08:42:53;17.67;;;7.97;;
31660;SDS011;18267;52.234;7.444;2022-11-20T08:45:19;15.48;;;8.10;;
31660;SDS011;18267;52.234;7.444;2022-11-20T08:47:44;19.90;;;8.27;;
31660;SDS011;18267;52.234;7.444;2022-11-20T08:50:11;16.00;;;8.10;;
31660;SDS011;18267;52.234;7.444;2022-11-20T08:52:39;16.85;;;7.75;;
31660;SDS011;18267;52.234;7.444;2022-11-20T08:55:05;15.93;;;7.93;;
31660;SDS011;18267;52.234;7.444;2022-11-20T08:57:32;19.23;;;8.80;;
31660;SDS011;18267;52.234;7.444;2022-11-20T08:59:58;18.52;;;8.35;;
31660;SDS011;18267;52.234;7.444;2022-11-20T09:02:24;17.85;;;8.45;;
31660;SDS011;18267;52.234;7.444;2022-11-20T09:04:49;23.73;;;9.88;;
31660;SDS011;18267;52.234;7.444;2022-11-20T09:07:15;20.75;;;8.82;;
31660;SDS011;18267;52.234;7.444;2022-11-20T09:09:41;20.00;;;7.80;;
31660;SDS011;18267;52.234;7.444;2022-11-20T09:12:06;15.52;;;7.82;;
31660;SDS011;18267;52.234;7.444;2022-11-20T09:14:32;18.50;;;8.88;;
31660;SDS011;18267;52.234;7.444;2022-11-20T09:16:59;19.00;;;8.80;;
31660;SDS011;18267;52.234;7.444;2022-11-20T09:20:04;17.75;;;8.82;;
31660;SDS011;18267;52.234;7.444;2022-11-20T09:22:30;21.38;;;8.95;;
31660;SDS011;18267;52.234;7.444;2022-11-20T09:25:01;19.70;;;8.98;;
31660;SDS011;18267;52.234;7.444;2022-11-20T09:27:27;16.20;;;8.18;;
31660;SDS011;18267;52.234;7.444;2022-11-20T09:29:53;21.33;;;8.00;;
31660;SDS011;18267;52.234;7.444;2022-11-20T09:32:19;17.75;;;7.88;;
31660;SDS011;18267;52.234;7.444;2022-11-20T09:34:44;18.98;;;8.68;;
31660;SDS011;18267;52.234;7.444;2022-11-20T09:37:10;25.27;;;9.15;;
31660;SDS011;18267;52.234;7.444;2022-11-20T09:39:42;21.35;;;9.25;;
31660;SDS011;18267;52.234;7.444;2022-11-20T09:53:10;28.05;;;10.82;;
31660;SDS011;18267;52.234;7.444;2022-11-20T09:55:39;21.48;;;9.43;;
31660;SDS011;18267;52.234;7.444;2022-11-20T09:58:13;27.33;;;10.82;;
31660;SDS011;18267;52.234;7.444;2022-11-20T10:01:04;36.43;;;10.93;;
31660;SDS011;18267;52.234;7.444;2022-11-20T10:03:37;35.40;;;10.88;;
31660;SDS011;18267;52.234;7.444;2022-11-20T10:06:12;31.88;;;11.00;;
31660;SDS011;18267;52.234;7.444;2022-11-20T10:08:43;29.52;;;10.95;;
31660;SDS011;18267;52.234;7.444;2022-11-20T10:11:19;25.33;;;9.32;;
31660;SDS011;18267;52.234;7.444;2022-11-20T10:24:53;28.42;;;10.23;;
31660;SDS011;18267;52.234;7.444;2022-11-20T10:27:40;24.42;;;9.57;;
31660;SDS011;18267;52.234;7.444;2022-11-20T10:30:30;22.25;;;9.10;;
31660;SDS011;18267;52.234;7.444;2022-11-20T10:33:02;27.58;;;9.70;;
31660;SDS011;18267;52.234;7.444;2022-11-20T10:37:58;28.38;;;9.43;;
31660;SDS011;18267;52.234;7.444;2022-11-20T10:40:47;31.48;;;9.65;;
31660;SDS011;18267;52.234;7.444;2022-11-20T10:43:25;28.48;;;10.55;;
31660;SDS011;18267;52.234;7.444;2022-11-20T10:46:01;23.95;;;9.80;;
31660;SDS011;18267;52.234;7.444;2022-11-20T10:48:48;28.63;;;9.15;;
31660;SDS011;18267;52.234;7.444;2022-11-20T10:54:20;27.30;;;9.20;;
31660;SDS011;18267;52.234;7.444;2022-11-20T11:00:12;28.10;;;10.47;;
31660;SDS011;18267;52.234;7.444;2022-11-20T11:02:56;31.65;;;10.63;;
31660;SDS011;18267;52.234;7.444;2022-11-20T11:08:02;33.78;;;11.20;;
31660;SDS011;18267;52.234;7.444;2022-11-20T11:10:35;30.90;;;11.52;;
31660;SDS011;18267;52.234;7.444;2022-11-20T11:13:07;33.17;;;11.38;;
31660;SDS011;18267;52.234;7.444;2022-11-20T11:15:54;33.35;;;12.50;;
31660;SDS011;18267;52.234;7.444;2022-11-20T11:18:31;33.83;;;12.57;;
31660;SDS011;18267;52.234;7.444;2022-11-20T11:21:03;42.15;;;12.68;;
31660;SDS011;18267;52.234;7.444;2022-11-20T11:23:37;32.28;;;12.05;;
31660;SDS011;18267;52.234;7.444;2022-11-20T11:26:20;40.95;;;14.00;;
31660;SDS011;18267;52.234;7.444;2022-11-20T11:28:57;43.17;;;15.40;;
31660;SDS011;18267;52.234;7.444;2022-11-20T11:31:24;42.22;;;14.77;;
31660;SDS011;18267;52.234;7.444;2022-11-20T11:33:50;40.88;;;13.68;;
31660;SDS011;18267;52.234;7.444;2022-11-20T11:36:17;49.88;;;14.38;;
31660;SDS011;18267;52.234;7.444;2022-11-20T11:38:48;36.17;;;13.57;;
31660;SDS011;18267;52.234;7.444;2022-11-20T11:41:23;43.53;;;13.98;;
31660;SDS011;18267;52.234;7.444;2022-11-20T11:43:56;38.45;;;14.43;;
31660;SDS011;18267;52.234;7.444;2022-11-20T11:46:44;43.58;;;13.75;;
31660;SDS011;18267;52.234;7.444;2022-11-20T11:49:18;51.87;;;15.83;;
31660;SDS011;18267;52.234;7.444;2022-11-20T11:57:00;50.83;;;15.07;;
31660;SDS011;18267;52.234;7.444;2022-11-20T12:02:48;42.63;;;15.05;;
31660;SDS011;18267;52.234;7.444;2022-11-20T12:05:41;52.58;;;16.13;;
31660;SDS011;18267;52.234;7.444;2022-11-20T12:16:10;48.10;;;14.77;;
31660;SDS011;18267;52.234;7.444;2022-11-20T12:18:38;40.90;;;14.77;;
31660;SDS011;18267;52.234;7.444;2022-11-20T12:26:39;46.72;;;16.77;;
31660;SDS011;18267;52.234;7.444;2022-11-20T12:29:36;50.70;;;16.48;;
31660;SDS011;18267;52.234;7.444;2022-11-20T12:40:52;43.97;;;15.05;;
31660;SDS011;18267;52.234;7.444;2022-11-20T12:47:54;41.63;;;14.82;;
31660;SDS011;18267;52.234;7.444;2022-11-20T12:53:32;39.35;;;15.13;;
31660;SDS011;18267;52.234;7.444;2022-11-20T12:56:17;40.92;;;14.40;;
31660;SDS011;18267;52.234;7.444;2022-11-20T12:59:00;38.58;;;14.55;;
31660;SDS011;18267;52.234;7.444;2022-11-20T13:01:59;44.60;;;14.88;;
31660;SDS011;18267;52.234;7.444;2022-11-20T13:07:04;43.38;;;15.57;;
31660;SDS011;18267;52.234;7.444;2022-11-20T13:09:33;43.58;;;15.52;;
31660;SDS011;18267;52.234;7.444;2022-11-20T13:14:42;51.75;;;18.85;;
31660;SDS011;18267;52.234;7.444;2022-11-20T13:17:42;54.53;;;19.90;;
31660;SDS011;18267;52.234;7.444;2022-11-20T13:20:16;58.80;;;20.05;;
31660;SDS011;18267;52.234;7.444;2022-11-20T13:22:44;74.32;;;26.80;;
31660;SDS011;18267;52.234;7.444;2022-11-20T13:25:26;70.57;;;25.83;;
31660;SDS011;18267;52.234;7.444;2022-11-20T13:27:58;61.13;;;21.85;;
31660;SDS011;18267;52.234;7.444;2022-11-20T13:30:28;48.38;;;19.73;;
31660;SDS011;18267;52.234;7.444;2022-11-20T13:37:59;57.90;;;19.42;;
31660;SDS011;18267;52.234;7.444;2022-11-20T13:40:29;49.58;;;20.10;;
31660;SDS011;18267;52.234;7.444;2022-11-20T13:42:56;61.83;;;22.35;;
31660;SDS011;18267;52.234;7.444;2022-11-20T13:45:27;60.25;;;21.60;;
31660;SDS011;18267;52.234;7.444;2022-11-20T13:47:56;57.97;;;20.88;;
31660;SDS011;18267;52.234;7.444;2022-11-20T13:58:53;63.70;;;21.92;;
31660;SDS011;18267;52.234;7.444;2022-11-20T14:01:23;69.97;;;23.20;;
31660;SDS011;18267;52.234;7.444;2022-11-20T14:03:51;65.78;;;23.55;;
31660;SDS011;18267;52.234;7.444;2022-11-20T14:06:30;68.82;;;23.75;;
31660;SDS011;18267;52.234;7.444;2022-11-20T14:08:59;58.10;;;21.40;;
31660;SDS011;18267;52.234;7.444;2022-11-20T14:11:26;59.55;;;21.17;;
31660;SDS011;18267;52.234;7.444;2022-11-20T14:14:00;59.83;;;19.90;;
31660;SDS011;18267;52.234;7.444;2022-11-20T14:16:29;55.72;;;20.67;;
31660;SDS011;18267;52.234;7.444;2022-11-20T14:19:17;61.72;;;21.20;;
31660;SDS011;18267;52.234;7.444;2022-11-20T14:21:45;58.80;;;19.25;;
31660;SDS011;18267;52.234;7.444;2022-11-20T14:24:12;53.17;;;19.17;;
31660;SDS011;18267;52.234;7.444;2022-11-20T14:26:44;55.58;;;19.70;;
31660;SDS011;18267;52.234;7.444;2022-11-20T14:29:14;57.88;;;21.02;;
31660;SDS011;18267;52.234;7.444;2022-11-20T14:31:46;50.90;;;20.38;;
31660;SDS011;18267;52.234;7.444;2022-11-20T14:34:17;49.20;;;19.00;;
31660;SDS011;18267;52.234;7.444;2022-11-20T14:36:46;47.55;;;19.40;;
31660;SDS011;18267;52.234;7.444;2022-11-20T14:39:22;50.50;;;18.27;;
31660;SDS011;18267;52.234;7.444;2022-11-20T14:41:54;50.05;;;18.40;;
31660;SDS011;18267;52.234;7.444;2022-11-20T14:44:20;48.05;;;18.60;;
31660;SDS011;18267;52.234;7.444;2022-11-20T14:46:50;48.83;;;16.60;;
31660;SDS011;18267;52.234;7.444;2022-11-20T14:49:17;43.63;;;18.33;;
31660;SDS011;18267;52.234;7.444;2022-11-20T14:51:43;45.08;;;17.63;;
31660;SDS011;18267;52.234;7.444;2022-11-20T14:54:11;46.42;;;18.83;;
31660;SDS011;18267;52.234;7.444;2022-11-20T14:56:42;39.97;;;16.75;;
31660;SDS011;18267;52.234;7.444;2022-11-20T14:59:22;34.25;;;14.30;;
31660;SDS011;18267;52.234;7.444;2022-11-20T15:04:33;46.80;;;17.48;;
31660;SDS011;18267;52.234;7.444;2022-11-20T15:07:08;47.53;;;17.70;;
31660;SDS011;18267;52.234;7.444;2022-11-20T15:09:34;45.90;;;17.80;;
31660;SDS011;18267;52.234;7.444;2022-11-20T15:12:00;38.92;;;17.95;;
31660;SDS011;18267;52.234;7.444;2022-11-20T15:14:28;62.63;;;24.73;;
31660;SDS011;18267;52.234;7.444;2022-11-20T15:16:57;77.85;;;30.27;;
31660;SDS011;18267;52.234;7.444;2022-11-20T15:19:24;85.18;;;32.78;;
31660;SDS011;18267;52.234;7.444;2022-11-20T15:21:51;71.60;;;30.23;;
31660;SDS011;18267;52.234;7.444;2022-11-20T15:24:17;64.88;;;26.58;;
31660;SDS011;18267;52.234;7.444;2022-11-20T15:26:43;51.30;;;22.42;;
31660;SDS011;18267;52.234;7.444;2022-11-20T15:29:09;53.70;;;21.58;;
31660;SDS011;18267;52.234;7.444;2022-11-20T15:31:37;54.97;;;22.55;;
31660;SDS011;18267;52.234;7.444;2022-11-20T15:34:10;50.00;;;22.13;;
31660;SDS011;18267;52.234;7.444;2022-11-20T15:36:37;55.97;;;21.33;;
31660;SDS011;18267;52.234;7.444;2022-11-20T15:39:06;51.85;;;21.60;;
31660;SDS011;18267;52.234;7.444;2022-11-20T15:41:35;49.38;;;19.92;;
31660;SDS011;18267;52.234;7.444;2022-11-20T15:44:02;49.65;;;20.23;;
31660;SDS011;18267;52.234;7.444;2022-11-20T15:46:29;43.08;;;18.35;;
31660;SDS011;18267;52.234;7.444;2022-11-20T15:49:03;50.03;;;17.90;;
31660;SDS011;18267;52.234;7.444;2022-11-20T15:51:36;45.75;;;18.67;;
31660;SDS011;18267;52.234;7.444;2022-11-20T15:54:10;38.40;;;15.40;;
31660;SDS011;18267;52.234;7.444;2022-11-20T15:56:42;46.10;;;18.10;;
31660;SDS011;18267;52.234;7.444;2022-11-20T15:59:07;45.67;;;17.67;;
31660;SDS011;18267;52.234;7.444;2022-11-20T16:01:33;47.20;;;17.85;;
31660;SDS011;18267;52.234;7.444;2022-11-20T16:03:59;46.75;;;17.02;;
31660;SDS011;18267;52.234;7.444;2022-11-20T16:06:25;45.05;;;17.48;;
31660;SDS011;18267;52.234;7.444;2022-11-20T16:08:51;44.65;;;17.30;;
31660;SDS011;18267;52.234;7.444;2022-11-20T16:11:17;49.35;;;17.75;;
31660;SDS011;18267;52.234;7.444;2022-11-20T16:13:43;41.95;;;16.58;;
31660;SDS011;18267;52.234;7.444;2022-11-20T16:18:57;43.78;;;16.58;;
31660;SDS011;18267;52.234;7.444;2022-11-20T16:21:23;49.53;;;16.58;;